Nearby METAR Reports

 

EGNT - Newcastle, United Kingdom
Distance from station: NNE 1mi, 2km
Updated: 18/02/2018 04:50
Clear
Clear
 Wind from NW
Wind: NW 1 mph , 2 km/h
Temperature: 0°C
Dew Point: 0°C
Humidity: 100%
Barometer: 1019 hPa
Summary: Clear
Visibility: greater than 7 miles , 10 km
2018/02/18 04:50 EGNT 180450Z 31001KT CAVOK M00/M00 Q1019
EGQM - Boulmer, United Kingdom
Distance from station: N 29mi, 47km
Updated: 18/02/2018 03:50
NOT Current
Few Clouds
Few Clouds
 Wind from SW
Wind: SW 7 mph , 11 km/h
Temperature: 0°C
Wind Chill: -4°C
Dew Point: -1°C
Humidity: 93%
Barometer: 1019 hPa
Clouds: Few Clouds
Visibility: 6 miles , 10 km
Cloud details: Few Clouds 6401 m
2018/02/18 03:50 EGQM 180350Z AUTO 23006KT 9999 FEW210/// M00/M01 Q1019
 
EGOM - Spadeadam, United Kingdom
Distance from station: W 34mi, 54km
Updated: 18/02/2018 03:50
NOT Current
Mostly cloudy
Mostly cloudy
 Wind from SE
Wind: SE 3 mph , 6 km/h
Temperature: 1°C
Dew Point: 1°C
Humidity: 100%
Barometer: 1017 hPa
Clouds: Mostly cloudy
Visibility: 6 miles , 10 km
Cloud details: Mostly cloudy 579 m
2018/02/18 03:50 EGOM 180350Z AUTO 13003KT 9999 BKN019/// 01/01 Q1017
EGNV - Tees-Side, United Kingdom
Distance from station: SSE 35mi, 57km
Updated: 17/02/2018 21:50
NOT Current
Few Clouds
Few Clouds
 Wind from SSW
Wind: SSW 6 mph , 9 km/h
Temperature: 1°C
Wind Chill: -2°C
Dew Point: 0°C
Humidity: 93%
Barometer: 1020 hPa
Clouds: Few Clouds
Visibility: 6 miles , 10 km
Cloud details: Few Clouds 1372 m
2018/02/17 21:50 EGNV 172150Z 20005KT 9999 FEW045 01/M00 Q1020
 
EGNC - Carlisle, United Kingdom
Distance from station: W 45mi, 72km
Updated: 16/02/2018 17:50
NOT Current
Few Clouds
Few Clouds
 Wind from S
Wind: S 6 mph , 9 km/h
Temperature: 5°C
Wind Chill: 3°C
Dew Point: 2°C
Humidity: 81%
Barometer: 1018 hPa
Clouds: Few Clouds
Visibility: 6 miles , 10 km
Cloud details: Few Clouds 732 m
2018/02/16 17:50 EGNC 161750Z 17005KT 120V210 9999 FEW024 05/02 Q1018
EGXE - Leeming Raf, United Kingdom
Distance from station: S 50mi, 81km
Updated: 18/02/2018 03:50
NOT Current
Few Clouds
Few Clouds
 Wind from S
Wind: S 7 mph , 11 km/h
Temperature: 0°C
Wind Chill: -4°C
Dew Point: 0°C
Humidity: 100%
Barometer: 1020 hPa
Clouds: Few Clouds
Visibility: 1 mile , 2 km
Cloud details: Few Clouds 1524 m
2018/02/18 03:50 EGXE 180350Z AUTO 17006KT 2100 FEW050/// 00/00 Q1020
 
EGXZ - Topcliffe Raf, United Kingdom
Distance from station: SSE 57mi, 91km
Updated: 18/02/2018 03:50
NOT Current
Mostly cloudy
Mostly cloudy
 Wind from SE
Wind: SE 8 mph , 13 km/h
Temperature: 0°C
Wind Chill: -4°C
Dew Point: -1°C
Humidity: 93%
Barometer: 1020 hPa
Clouds: Mostly cloudy
Visibility: 2 miles , 3 km
Cloud details: Mostly cloudy 1829 m
2018/02/18 03:50 EGXZ 180350Z AUTO 13007KT 2700 BKN060/// M00/M01 Q1020
EGXU - Linton-On-Ouse R, United Kingdom
Distance from station: SSE 68mi, 110km
Updated: 18/02/2018 03:50
NOT Current
Partly cloudy
Partly cloudy
 Wind from ESE
Wind: ESE 5 mph , 7 km/h
Temperature: 0°C
Wind Chill: -3°C
Dew Point: -1°C
Humidity: 93%
Barometer: 1020 hPa
Clouds: Partly cloudy
Visibility: 1 mile , 2 km
Cloud details: Partly cloudy 7010 m
2018/02/18 03:50 EGXU 180350Z AUTO 11004KT 2100 // SCT230/// M00/M01 Q1020
 
EGNM - Leeds And Bradfo, United Kingdom
Distance from station: S 78mi, 126km
Updated: 18/02/2018 04:50
Clear
Clear
 Wind from SW
Wind: SW 1 mph , 2 km/h
Temperature: 2°C
Dew Point: 0°C
Humidity: 87%
Barometer: 1019 hPa
Summary: Clear
Visibility: greater than 7 miles , 10 km
2018/02/18 04:50 EGNM 180450Z 23001KT CAVOK 02/00 Q1019
EGPH - Edinburgh Airpor, United Kingdom
Distance from station: NW 92mi, 148km
Updated: 18/02/2018 04:50
Few Clouds
Few Clouds
 Wind from calm
Wind: Calm
Temperature: -2°C
Dew Point: -3°C
Humidity: 93%
Barometer: 1019 hPa
Clouds: Few Clouds
Visibility: 6 miles , 9 km
Cloud details: Few Clouds 91 m
2018/02/18 04:50 EGPH 180450Z 00000KT 9000 FEW003 M02/M03 Q1019
 
EGXV - Leconfield (aut), United Kingdom
Distance from station: SE 93mi, 150km
Updated: 18/02/2018 03:50
NOT Current
Mist, Mostly cloudy
Mist, Mostly cloudy
 Wind from S
Wind: S 5 mph , 7 km/h
Temperature: 2°C
Wind Chill: 0°C
Dew Point: 2°C
Humidity: 100%
Barometer: 1020 hPa
Summary: Mist
Clouds: Mostly cloudy
Visibility: 4 miles , 6 km
Cloud details: Partly cloudy 1097 m
Mostly cloudy 1524 m
2018/02/18 03:50 EGXV 180350Z AUTO 18004KT 6000 BR SCT036/// BKN050/// 02/02 Q1020 REUP
EGNO - Wharton, United Kingdom
Distance from station: SSW 99mi, 159km
Updated: 16/02/2018 16:50
NOT Current
Few Clouds
Few Clouds
 Wind from S
Wind: S 5 mph , 7 km/h
Temperature: 6°C
Wind Chill: 4°C
Dew Point: 3°C
Humidity: 81%
Barometer: 1020 hPa
Clouds: Few Clouds
Visibility: 6 miles , 10 km
Cloud details: Few Clouds 1036 m
2018/02/16 16:50 EGNO 161650Z 19004KT 9999 FEW034 06/03 Q1020
 
EGNH - Blackpool Airpor, United Kingdom
Distance from station: SSW 100mi, 161km
Updated: 17/02/2018 20:50
NOT Current
Clear
Clear
 Wind from ESE
Wind: ESE 5 mph , 7 km/h
Temperature: 3°C
Wind Chill: 1°C
Dew Point: 2°C
Humidity: 93%
Barometer: 1020 hPa
Summary: Clear
Visibility: greater than 7 miles , 10 km
2018/02/17 20:50 EGNH 172050Z 12004KT CAVOK 03/02 Q1020